sensor_id;sensor_type;location;lat;lon;timestamp;P1;durP1;ratioP1;P2;durP2;ratioP2
5682;SDS011;2864;49.220;8.654;2022-12-18T02:28:20;70.67;;;28.73;;
5682;SDS011;2864;49.220;8.654;2022-12-18T02:30:47;62.73;;;28.27;;
5682;SDS011;2864;49.220;8.654;2022-12-18T02:33:15;59.67;;;26.13;;
5682;SDS011;2864;49.220;8.654;2022-12-18T02:35:41;62.77;;;27.37;;
5682;SDS011;2864;49.220;8.654;2022-12-18T02:38:10;63.40;;;26.97;;
5682;SDS011;2864;49.220;8.654;2022-12-18T02:40:37;58.50;;;27.73;;
5682;SDS011;2864;49.220;8.654;2022-12-18T02:43:07;62.17;;;25.87;;
5682;SDS011;2864;49.220;8.654;2022-12-18T02:45:33;58.67;;;26.60;;
5682;SDS011;2864;49.220;8.654;2022-12-18T02:47:59;62.00;;;26.50;;
5682;SDS011;2864;49.220;8.654;2022-12-18T02:50:36;66.40;;;27.43;;
5682;SDS011;2864;49.220;8.654;2022-12-18T02:53:10;56.07;;;26.07;;
5682;SDS011;2864;49.220;8.654;2022-12-18T03:09:27;63.87;;;25.80;;
5682;SDS011;2864;49.220;8.654;2022-12-18T03:14:49;61.07;;;27.13;;
5682;SDS011;2864;49.220;8.654;2022-12-18T03:17:17;56.70;;;25.90;;
5682;SDS011;2864;49.220;8.654;2022-12-18T03:19:45;60.17;;;26.57;;
5682;SDS011;2864;49.220;8.654;2022-12-18T03:22:12;54.27;;;25.10;;
5682;SDS011;2864;49.220;8.654;2022-12-18T03:24:39;62.43;;;24.93;;
5682;SDS011;2864;49.220;8.654;2022-12-18T03:27:06;52.07;;;24.43;;
5682;SDS011;2864;49.220;8.654;2022-12-18T03:29:42;59.47;;;25.63;;
5682;SDS011;2864;49.220;8.654;2022-12-18T03:32:21;54.13;;;26.30;;
5682;SDS011;2864;49.220;8.654;2022-12-18T03:34:51;57.23;;;26.23;;
5682;SDS011;2864;49.220;8.654;2022-12-18T03:37:18;58.03;;;25.43;;
5682;SDS011;2864;49.220;8.654;2022-12-18T03:39:44;56.53;;;24.73;;
5682;SDS011;2864;49.220;8.654;2022-12-18T03:44:50;54.27;;;25.33;;
5682;SDS011;2864;49.220;8.654;2022-12-18T03:48:04;56.03;;;24.77;;
5682;SDS011;2864;49.220;8.654;2022-12-18T03:50:20;52.33;;;25.53;;
5682;SDS011;2864;49.220;8.654;2022-12-18T03:52:52;53.50;;;24.33;;
5682;SDS011;2864;49.220;8.654;2022-12-18T03:55:20;44.07;;;23.60;;
5682;SDS011;2864;49.220;8.654;2022-12-18T03:57:48;53.13;;;24.73;;
5682;SDS011;2864;49.220;8.654;2022-12-18T04:00:15;51.50;;;25.67;;
5682;SDS011;2864;49.220;8.654;2022-12-18T04:02:46;52.90;;;24.77;;
5682;SDS011;2864;49.220;8.654;2022-12-18T04:05:16;51.03;;;22.53;;
5682;SDS011;2864;49.220;8.654;2022-12-18T04:07:44;53.97;;;25.27;;
5682;SDS011;2864;49.220;8.654;2022-12-18T04:10:11;46.93;;;24.43;;
5682;SDS011;2864;49.220;8.654;2022-12-18T04:12:37;47.83;;;24.57;;
5682;SDS011;2864;49.220;8.654;2022-12-18T04:15:04;45.93;;;24.17;;
5682;SDS011;2864;49.220;8.654;2022-12-18T04:17:30;53.07;;;24.90;;
5682;SDS011;2864;49.220;8.654;2022-12-18T04:19:56;46.10;;;24.97;;
5682;SDS011;2864;49.220;8.654;2022-12-18T04:22:22;51.67;;;27.20;;
5682;SDS011;2864;49.220;8.654;2022-12-18T04:24:48;53.23;;;27.30;;
5682;SDS011;2864;49.220;8.654;2022-12-18T04:27:14;49.33;;;25.33;;
5682;SDS011;2864;49.220;8.654;2022-12-18T04:29:40;54.43;;;27.97;;
5682;SDS011;2864;49.220;8.654;2022-12-18T04:32:06;56.03;;;28.07;;
5682;SDS011;2864;49.220;8.654;2022-12-18T04:34:32;59.40;;;29.30;;
5682;SDS011;2864;49.220;8.654;2022-12-18T04:36:58;66.30;;;31.20;;
5682;SDS011;2864;49.220;8.654;2022-12-18T04:39:24;67.20;;;32.60;;
5682;SDS011;2864;49.220;8.654;2022-12-18T04:41:50;62.23;;;30.60;;
5682;SDS011;2864;49.220;8.654;2022-12-18T04:44:17;67.20;;;33.87;;
5682;SDS011;2864;49.220;8.654;2022-12-18T04:46:43;67.20;;;32.17;;
5682;SDS011;2864;49.220;8.654;2022-12-18T04:49:09;59.30;;;28.63;;
5682;SDS011;2864;49.220;8.654;2022-12-18T04:51:38;65.53;;;31.97;;
5682;SDS011;2864;49.220;8.654;2022-12-18T04:54:04;59.23;;;29.73;;
5682;SDS011;2864;49.220;8.654;2022-12-18T04:56:31;70.27;;;32.33;;
5682;SDS011;2864;49.220;8.654;2022-12-18T04:58:57;63.20;;;31.93;;
5682;SDS011;2864;49.220;8.654;2022-12-18T05:01:23;60.63;;;31.27;;
5682;SDS011;2864;49.220;8.654;2022-12-18T05:03:50;63.43;;;31.13;;
5682;SDS011;2864;49.220;8.654;2022-12-18T05:06:16;64.73;;;31.50;;
5682;SDS011;2864;49.220;8.654;2022-12-18T05:08:42;66.43;;;31.63;;
5682;SDS011;2864;49.220;8.654;2022-12-18T05:11:09;69.80;;;31.83;;
5682;SDS011;2864;49.220;8.654;2022-12-18T05:13:37;61.00;;;31.07;;
5682;SDS011;2864;49.220;8.654;2022-12-18T05:16:04;66.60;;;31.70;;
5682;SDS011;2864;49.220;8.654;2022-12-18T05:18:30;67.17;;;32.97;;
5682;SDS011;2864;49.220;8.654;2022-12-18T05:20:56;60.23;;;30.10;;
5682;SDS011;2864;49.220;8.654;2022-12-18T05:23:23;62.53;;;30.53;;
5682;SDS011;2864;49.220;8.654;2022-12-18T05:25:53;63.57;;;32.27;;
5682;SDS011;2864;49.220;8.654;2022-12-18T05:28:20;68.70;;;32.40;;
5682;SDS011;2864;49.220;8.654;2022-12-18T05:30:47;60.03;;;29.37;;
5682;SDS011;2864;49.220;8.654;2022-12-18T05:33:14;61.43;;;31.27;;
5682;SDS011;2864;49.220;8.654;2022-12-18T05:35:40;66.13;;;31.57;;
5682;SDS011;2864;49.220;8.654;2022-12-18T05:38:06;63.90;;;30.27;;
5682;SDS011;2864;49.220;8.654;2022-12-18T05:40:32;65.23;;;31.43;;
5682;SDS011;2864;49.220;8.654;2022-12-18T05:42:58;64.07;;;29.80;;
5682;SDS011;2864;49.220;8.654;2022-12-18T05:45:24;69.23;;;30.83;;
5682;SDS011;2864;49.220;8.654;2022-12-18T05:47:50;66.63;;;32.47;;
5682;SDS011;2864;49.220;8.654;2022-12-18T05:50:18;62.30;;;30.43;;
5682;SDS011;2864;49.220;8.654;2022-12-18T05:52:44;67.10;;;31.40;;
5682;SDS011;2864;49.220;8.654;2022-12-18T05:55:10;72.03;;;33.07;;
5682;SDS011;2864;49.220;8.654;2022-12-18T06:01:05;64.30;;;30.00;;
5682;SDS011;2864;49.220;8.654;2022-12-18T06:03:35;64.43;;;29.43;;
5682;SDS011;2864;49.220;8.654;2022-12-18T06:06:02;58.20;;;29.37;;
5682;SDS011;2864;49.220;8.654;2022-12-18T06:08:28;66.77;;;31.70;;
5682;SDS011;2864;49.220;8.654;2022-12-18T06:10:54;64.83;;;30.80;;
5682;SDS011;2864;49.220;8.654;2022-12-18T06:13:21;67.57;;;32.07;;
5682;SDS011;2864;49.220;8.654;2022-12-18T06:15:47;69.23;;;31.50;;
5682;SDS011;2864;49.220;8.654;2022-12-18T06:18:13;62.23;;;29.10;;
5682;SDS011;2864;49.220;8.654;2022-12-18T06:20:39;59.70;;;30.10;;
5682;SDS011;2864;49.220;8.654;2022-12-18T06:23:06;68.30;;;30.83;;
5682;SDS011;2864;49.220;8.654;2022-12-18T06:25:32;63.87;;;30.60;;
5682;SDS011;2864;49.220;8.654;2022-12-18T06:27:58;63.17;;;30.83;;
5682;SDS011;2864;49.220;8.654;2022-12-18T06:30:24;55.53;;;27.73;;
5682;SDS011;2864;49.220;8.654;2022-12-18T06:32:50;68.70;;;31.00;;
5682;SDS011;2864;49.220;8.654;2022-12-18T06:35:16;99.67;;;39.23;;
5682;SDS011;2864;49.220;8.654;2022-12-18T06:37:42;137.40;;;47.37;;
5682;SDS011;2864;49.220;8.654;2022-12-18T06:40:08;130.33;;;48.17;;
5682;SDS011;2864;49.220;8.654;2022-12-18T06:42:34;64.23;;;32.03;;
5682;SDS011;2864;49.220;8.654;2022-12-18T06:45:00;66.30;;;31.20;;
5682;SDS011;2864;49.220;8.654;2022-12-18T06:47:26;55.53;;;28.43;;
5682;SDS011;2864;49.220;8.654;2022-12-18T06:49:52;50.13;;;25.80;;
5682;SDS011;2864;49.220;8.654;2022-12-18T06:52:18;56.70;;;27.23;;
5682;SDS011;2864;49.220;8.654;2022-12-18T06:54:43;59.93;;;27.93;;
5682;SDS011;2864;49.220;8.654;2022-12-18T06:57:09;63.07;;;30.57;;
5682;SDS011;2864;49.220;8.654;2022-12-18T06:59:35;59.37;;;28.73;;
5682;SDS011;2864;49.220;8.654;2022-12-18T07:02:01;61.13;;;28.63;;
5682;SDS011;2864;49.220;8.654;2022-12-18T07:07:49;58.23;;;27.73;;
5682;SDS011;2864;49.220;8.654;2022-12-18T07:10:15;62.93;;;29.60;;
5682;SDS011;2864;49.220;8.654;2022-12-18T07:12:40;60.40;;;29.67;;
5682;SDS011;2864;49.220;8.654;2022-12-18T07:15:06;61.13;;;29.53;;
5682;SDS011;2864;49.220;8.654;2022-12-18T07:17:32;58.93;;;30.23;;
5682;SDS011;2864;49.220;8.654;2022-12-18T07:19:58;63.20;;;30.83;;
5682;SDS011;2864;49.220;8.654;2022-12-18T07:22:24;53.67;;;26.30;;
5682;SDS011;2864;49.220;8.654;2022-12-18T07:24:50;61.00;;;29.43;;
5682;SDS011;2864;49.220;8.654;2022-12-18T07:27:16;59.37;;;30.50;;
5682;SDS011;2864;49.220;8.654;2022-12-18T07:29:42;64.70;;;30.37;;
5682;SDS011;2864;49.220;8.654;2022-12-18T07:32:08;59.20;;;29.30;;
5682;SDS011;2864;49.220;8.654;2022-12-18T07:34:34;61.80;;;29.73;;
5682;SDS011;2864;49.220;8.654;2022-12-18T07:37:00;61.07;;;28.03;;
5682;SDS011;2864;49.220;8.654;2022-12-18T07:39:26;63.23;;;27.97;;
5682;SDS011;2864;49.220;8.654;2022-12-18T07:41:52;61.73;;;28.43;;
5682;SDS011;2864;49.220;8.654;2022-12-18T07:44:37;64.60;;;29.20;;
5682;SDS011;2864;49.220;8.654;2022-12-18T07:47:03;52.30;;;25.97;;
5682;SDS011;2864;49.220;8.654;2022-12-18T07:49:29;57.50;;;27.53;;
5682;SDS011;2864;49.220;8.654;2022-12-18T07:51:55;56.63;;;28.07;;
5682;SDS011;2864;49.220;8.654;2022-12-18T07:54:22;59.43;;;28.30;;
5682;SDS011;2864;49.220;8.654;2022-12-18T07:56:48;56.63;;;28.40;;
5682;SDS011;2864;49.220;8.654;2022-12-18T07:59:14;60.53;;;28.27;;
5682;SDS011;2864;49.220;8.654;2022-12-18T08:01:40;55.37;;;28.13;;
5682;SDS011;2864;49.220;8.654;2022-12-18T08:04:06;74.30;;;40.03;;
5682;SDS011;2864;49.220;8.654;2022-12-18T08:06:32;60.03;;;31.17;;
5682;SDS011;2864;49.220;8.654;2022-12-18T08:08:58;59.00;;;29.17;;
5682;SDS011;2864;49.220;8.654;2022-12-18T08:11:25;61.20;;;28.97;;
5682;SDS011;2864;49.220;8.654;2022-12-18T08:13:52;51.97;;;23.93;;
5682;SDS011;2864;49.220;8.654;2022-12-18T08:16:18;64.63;;;29.73;;
5682;SDS011;2864;49.220;8.654;2022-12-18T08:18:44;28.73;;;16.53;;
5682;SDS011;2864;49.220;8.654;2022-12-18T08:21:11;52.43;;;26.97;;
5682;SDS011;2864;49.220;8.654;2022-12-18T08:23:37;49.50;;;25.77;;
5682;SDS011;2864;49.220;8.654;2022-12-18T08:26:04;49.13;;;24.63;;
5682;SDS011;2864;49.220;8.654;2022-12-18T08:28:30;55.10;;;26.27;;
5682;SDS011;2864;49.220;8.654;2022-12-18T08:30:56;57.67;;;26.20;;
5682;SDS011;2864;49.220;8.654;2022-12-18T08:33:23;50.83;;;26.30;;
5682;SDS011;2864;49.220;8.654;2022-12-18T08:35:49;52.40;;;25.60;;
5682;SDS011;2864;49.220;8.654;2022-12-18T08:38:15;53.97;;;26.90;;
5682;SDS011;2864;49.220;8.654;2022-12-18T08:40:40;49.73;;;26.37;;
5682;SDS011;2864;49.220;8.654;2022-12-18T08:43:07;50.27;;;23.60;;
5682;SDS011;2864;49.220;8.654;2022-12-18T08:45:53;52.90;;;24.23;;
5682;SDS011;2864;49.220;8.654;2022-12-18T08:48:19;45.27;;;22.07;;
5682;SDS011;2864;49.220;8.654;2022-12-18T08:50:55;33.63;;;17.03;;
5682;SDS011;2864;49.220;8.654;2022-12-18T08:53:25;55.90;;;23.57;;
5682;SDS011;2864;49.220;8.654;2022-12-18T08:55:51;47.13;;;20.73;;
5682;SDS011;2864;49.220;8.654;2022-12-18T08:58:17;33.33;;;16.70;;
5682;SDS011;2864;49.220;8.654;2022-12-18T09:00:43;50.07;;;24.63;;
5682;SDS011;2864;49.220;8.654;2022-12-18T09:03:13;44.13;;;23.83;;
5682;SDS011;2864;49.220;8.654;2022-12-18T09:05:40;46.87;;;23.00;;
5682;SDS011;2864;49.220;8.654;2022-12-18T09:08:06;49.30;;;24.47;;
5682;SDS011;2864;49.220;8.654;2022-12-18T09:10:32;40.53;;;21.60;;
5682;SDS011;2864;49.220;8.654;2022-12-18T09:12:58;36.43;;;20.53;;
5682;SDS011;2864;49.220;8.654;2022-12-18T09:15:24;45.87;;;22.73;;
5682;SDS011;2864;49.220;8.654;2022-12-18T09:17:51;43.77;;;22.40;;
5682;SDS011;2864;49.220;8.654;2022-12-18T09:20:17;45.07;;;22.83;;
5682;SDS011;2864;49.220;8.654;2022-12-18T09:22:43;45.87;;;22.80;;
5682;SDS011;2864;49.220;8.654;2022-12-18T09:25:09;40.50;;;22.17;;
5682;SDS011;2864;49.220;8.654;2022-12-18T09:27:35;47.73;;;22.67;;
5682;SDS011;2864;49.220;8.654;2022-12-18T09:30:02;40.47;;;22.70;;
5682;SDS011;2864;49.220;8.654;2022-12-18T09:32:28;43.53;;;23.03;;
5682;SDS011;2864;49.220;8.654;2022-12-18T09:34:54;47.50;;;23.87;;
5682;SDS011;2864;49.220;8.654;2022-12-18T09:37:20;49.70;;;26.47;;
5682;SDS011;2864;49.220;8.654;2022-12-18T09:39:46;47.87;;;22.97;;
5682;SDS011;2864;49.220;8.654;2022-12-18T09:42:17;39.90;;;20.37;;
5682;SDS011;2864;49.220;8.654;2022-12-18T09:44:47;35.23;;;17.83;;
5682;SDS011;2864;49.220;8.654;2022-12-18T09:50:15;42.97;;;21.37;;
5682;SDS011;2864;49.220;8.654;2022-12-18T09:52:56;30.93;;;15.23;;
5682;SDS011;2864;49.220;8.654;2022-12-18T10:00:39;40.67;;;20.27;;
5682;SDS011;2864;49.220;8.654;2022-12-18T10:03:10;40.33;;;20.97;;
5682;SDS011;2864;49.220;8.654;2022-12-18T10:08:05;42.17;;;21.17;;
5682;SDS011;2864;49.220;8.654;2022-12-18T10:13:09;43.33;;;21.23;;
5682;SDS011;2864;49.220;8.654;2022-12-18T10:15:45;45.97;;;23.03;;
5682;SDS011;2864;49.220;8.654;2022-12-18T10:21:51;41.30;;;21.17;;
5682;SDS011;2864;49.220;8.654;2022-12-18T10:26:38;37.40;;;20.00;;
5682;SDS011;2864;49.220;8.654;2022-12-18T10:29:08;38.10;;;18.37;;
5682;SDS011;2864;49.220;8.654;2022-12-18T10:31:36;39.17;;;18.57;;
5682;SDS011;2864;49.220;8.654;2022-12-18T10:34:03;38.33;;;22.00;;
5682;SDS011;2864;49.220;8.654;2022-12-18T10:36:29;34.63;;;17.37;;
5682;SDS011;2864;49.220;8.654;2022-12-18T10:39:04;39.53;;;20.33;;
5682;SDS011;2864;49.220;8.654;2022-12-18T10:41:39;41.50;;;21.10;;
5682;SDS011;2864;49.220;8.654;2022-12-18T10:44:12;40.67;;;21.10;;
5682;SDS011;2864;49.220;8.654;2022-12-18T10:46:43;40.10;;;21.37;;
5682;SDS011;2864;49.220;8.654;2022-12-18T10:49:26;38.90;;;20.73;;
5682;SDS011;2864;49.220;8.654;2022-12-18T10:52:15;37.53;;;17.87;;
5682;SDS011;2864;49.220;8.654;2022-12-18T10:54:45;39.50;;;20.53;;
5682;SDS011;2864;49.220;8.654;2022-12-18T10:57:15;42.13;;;20.47;;
5682;SDS011;2864;49.220;8.654;2022-12-18T11:00:21;41.70;;;21.27;;
5682;SDS011;2864;49.220;8.654;2022-12-18T11:02:48;41.20;;;19.90;;
5682;SDS011;2864;49.220;8.654;2022-12-18T11:05:28;38.47;;;20.33;;
5682;SDS011;2864;49.220;8.654;2022-12-18T11:07:54;41.30;;;20.27;;
5682;SDS011;2864;49.220;8.654;2022-12-18T11:10:25;41.03;;;19.70;;
5682;SDS011;2864;49.220;8.654;2022-12-18T11:12:53;42.73;;;21.10;;
5682;SDS011;2864;49.220;8.654;2022-12-18T11:15:20;37.77;;;18.90;;
5682;SDS011;2864;49.220;8.654;2022-12-18T11:17:51;45.53;;;21.57;;
5682;SDS011;2864;49.220;8.654;2022-12-18T11:20:27;42.90;;;21.73;;
5682;SDS011;2864;49.220;8.654;2022-12-18T11:23:00;46.20;;;25.33;;
5682;SDS011;2864;49.220;8.654;2022-12-18T11:25:29;44.30;;;23.23;;
5682;SDS011;2864;49.220;8.654;2022-12-18T11:28:00;48.13;;;23.23;;
5682;SDS011;2864;49.220;8.654;2022-12-18T11:30:28;38.10;;;21.47;;
5682;SDS011;2864;49.220;8.654;2022-12-18T11:38:38;44.30;;;22.73;;
5682;SDS011;2864;49.220;8.654;2022-12-18T11:41:02;44.20;;;22.67;;
5682;SDS011;2864;49.220;8.654;2022-12-18T11:46:19;42.40;;;23.00;;
5682;SDS011;2864;49.220;8.654;2022-12-18T11:49:08;35.67;;;19.13;;
5682;SDS011;2864;49.220;8.654;2022-12-18T11:51:50;43.23;;;21.27;;
5682;SDS011;2864;49.220;8.654;2022-12-18T11:54:17;44.60;;;22.27;;
5682;SDS011;2864;49.220;8.654;2022-12-18T11:56:45;37.77;;;20.97;;
5682;SDS011;2864;49.220;8.654;2022-12-18T12:01:51;36.83;;;19.07;;
5682;SDS011;2864;49.220;8.654;2022-12-18T12:04:29;39.50;;;21.17;;
5682;SDS011;2864;49.220;8.654;2022-12-18T12:07:33;47.43;;;22.03;;
5682;SDS011;2864;49.220;8.654;2022-12-18T12:10:23;39.47;;;21.27;;
5682;SDS011;2864;49.220;8.654;2022-12-18T12:21:09;43.33;;;21.03;;
5682;SDS011;2864;49.220;8.654;2022-12-18T12:26:21;40.17;;;20.77;;
5682;SDS011;2864;49.220;8.654;2022-12-18T12:31:42;42.53;;;22.17;;
5682;SDS011;2864;49.220;8.654;2022-12-18T12:34:26;41.77;;;21.70;;
5682;SDS011;2864;49.220;8.654;2022-12-18T12:39:36;39.33;;;19.23;;
5682;SDS011;2864;49.220;8.654;2022-12-18T12:42:04;43.23;;;22.57;;
5682;SDS011;2864;49.220;8.654;2022-12-18T12:44:55;36.87;;;18.53;;
5682;SDS011;2864;49.220;8.654;2022-12-18T12:47:28;41.10;;;20.53;;
5682;SDS011;2864;49.220;8.654;2022-12-18T12:50:03;38.40;;;19.90;;
5682;SDS011;2864;49.220;8.654;2022-12-18T12:52:40;40.30;;;20.17;;
5682;SDS011;2864;49.220;8.654;2022-12-18T12:55:22;38.87;;;19.03;;
5682;SDS011;2864;49.220;8.654;2022-12-18T13:07:41;41.27;;;20.20;;
5682;SDS011;2864;49.220;8.654;2022-12-18T13:10:53;38.33;;;20.20;;
5682;SDS011;2864;49.220;8.654;2022-12-18T13:13:07;41.03;;;20.77;;
5682;SDS011;2864;49.220;8.654;2022-12-18T13:20:44;45.93;;;21.23;;
5682;SDS011;2864;49.220;8.654;2022-12-18T13:25:49;40.93;;;20.80;;
5682;SDS011;2864;49.220;8.654;2022-12-18T13:28:49;42.40;;;21.97;;
5682;SDS011;2864;49.220;8.654;2022-12-18T13:31:09;40.93;;;20.60;;
5682;SDS011;2864;49.220;8.654;2022-12-18T13:33:42;40.43;;;19.83;;
5682;SDS011;2864;49.220;8.654;2022-12-18T13:38:37;42.43;;;20.50;;
5682;SDS011;2864;49.220;8.654;2022-12-18T13:46:20;48.13;;;21.93;;
5682;SDS011;2864;49.220;8.654;2022-12-18T13:49:02;42.70;;;20.67;;
5682;SDS011;2864;49.220;8.654;2022-12-18T13:51:44;43.93;;;21.90;;
5682;SDS011;2864;49.220;8.654;2022-12-18T13:56:45;47.07;;;23.13;;
5682;SDS011;2864;49.220;8.654;2022-12-18T13:59:16;43.77;;;20.80;;
5682;SDS011;2864;49.220;8.654;2022-12-18T14:01:44;43.90;;;22.07;;
5682;SDS011;2864;49.220;8.654;2022-12-18T14:04:11;38.97;;;20.17;;
5682;SDS011;2864;49.220;8.654;2022-12-18T14:06:42;48.50;;;23.57;;
5682;SDS011;2864;49.220;8.654;2022-12-18T14:09:11;47.50;;;21.80;;
5682;SDS011;2864;49.220;8.654;2022-12-18T14:11:38;50.07;;;24.57;;
5682;SDS011;2864;49.220;8.654;2022-12-18T14:14:05;63.93;;;29.57;;
5682;SDS011;2864;49.220;8.654;2022-12-18T14:16:32;121.00;;;39.13;;
5682;SDS011;2864;49.220;8.654;2022-12-18T14:18:59;82.77;;;34.27;;
5682;SDS011;2864;49.220;8.654;2022-12-18T14:21:26;52.43;;;25.37;;
5682;SDS011;2864;49.220;8.654;2022-12-18T14:24:12;42.63;;;22.30;;
5682;SDS011;2864;49.220;8.654;2022-12-18T14:26:39;45.07;;;22.07;;
5682;SDS011;2864;49.220;8.654;2022-12-18T14:29:24;42.57;;;21.07;;
5682;SDS011;2864;49.220;8.654;2022-12-18T14:32:04;40.30;;;20.60;;
5682;SDS011;2864;49.220;8.654;2022-12-18T14:34:30;46.17;;;23.50;;
5682;SDS011;2864;49.220;8.654;2022-12-18T14:36:56;40.53;;;21.40;;
5682;SDS011;2864;49.220;8.654;2022-12-18T14:39:21;46.40;;;21.87;;
5682;SDS011;2864;49.220;8.654;2022-12-18T14:41:50;42.63;;;21.30;;
5682;SDS011;2864;49.220;8.654;2022-12-18T14:44:16;47.33;;;21.93;;
5682;SDS011;2864;49.220;8.654;2022-12-18T14:46:42;43.83;;;22.27;;
5682;SDS011;2864;49.220;8.654;2022-12-18T14:49:29;46.20;;;22.30;;
5682;SDS011;2864;49.220;8.654;2022-12-18T14:51:56;46.80;;;22.80;;
5682;SDS011;2864;49.220;8.654;2022-12-18T14:54:27;46.43;;;21.37;;
5682;SDS011;2864;49.220;8.654;2022-12-18T14:57:01;44.33;;;21.70;;
5682;SDS011;2864;49.220;8.654;2022-12-18T14:59:28;45.47;;;21.60;;
5682;SDS011;2864;49.220;8.654;2022-12-18T15:01:59;43.67;;;21.80;;
5682;SDS011;2864;49.220;8.654;2022-12-18T15:04:36;45.20;;;22.23;;
5682;SDS011;2864;49.220;8.654;2022-12-18T15:07:23;44.77;;;21.20;;
5682;SDS011;2864;49.220;8.654;2022-12-18T15:10:03;47.53;;;22.63;;
5682;SDS011;2864;49.220;8.654;2022-12-18T15:12:34;43.17;;;21.13;;
5682;SDS011;2864;49.220;8.654;2022-12-18T15:15:00;44.90;;;21.30;;
5682;SDS011;2864;49.220;8.654;2022-12-18T15:17:26;43.23;;;21.67;;
5682;SDS011;2864;49.220;8.654;2022-12-18T15:19:53;44.60;;;20.60;;
5682;SDS011;2864;49.220;8.654;2022-12-18T15:24:51;43.57;;;21.23;;
5682;SDS011;2864;49.220;8.654;2022-12-18T15:29:59;43.67;;;20.73;;
5682;SDS011;2864;49.220;8.654;2022-12-18T15:32:25;40.80;;;20.40;;
5682;SDS011;2864;49.220;8.654;2022-12-18T15:37:20;45.13;;;20.60;;
5682;SDS011;2864;49.220;8.654;2022-12-18T15:39:46;45.70;;;21.33;;
5682;SDS011;2864;49.220;8.654;2022-12-18T15:42:12;41.87;;;20.87;;
5682;SDS011;2864;49.220;8.654;2022-12-18T15:44:56;45.80;;;21.07;;
5682;SDS011;2864;49.220;8.654;2022-12-18T15:47:22;47.10;;;21.37;;
5682;SDS011;2864;49.220;8.654;2022-12-18T15:49:48;42.13;;;20.77;;
5682;SDS011;2864;49.220;8.654;2022-12-18T15:52:13;43.93;;;20.80;;
5682;SDS011;2864;49.220;8.654;2022-12-18T15:54:50;43.53;;;20.63;;
5682;SDS011;2864;49.220;8.654;2022-12-18T15:57:35;48.30;;;21.93;;
5682;SDS011;2864;49.220;8.654;2022-12-18T16:00:01;38.87;;;19.13;;
5682;SDS011;2864;49.220;8.654;2022-12-18T16:02:27;44.17;;;20.63;;
5682;SDS011;2864;49.220;8.654;2022-12-18T16:04:53;48.07;;;22.47;;
5682;SDS011;2864;49.220;8.654;2022-12-18T16:07:19;46.60;;;21.67;;
5682;SDS011;2864;49.220;8.654;2022-12-18T16:09:47;48.03;;;21.10;;
5682;SDS011;2864;49.220;8.654;2022-12-18T16:12:19;85.03;;;36.40;;
5682;SDS011;2864;49.220;8.654;2022-12-18T16:14:47;52.53;;;23.03;;
5682;SDS011;2864;49.220;8.654;2022-12-18T16:17:13;46.33;;;22.87;;
5682;SDS011;2864;49.220;8.654;2022-12-18T16:19:39;41.80;;;20.50;;
5682;SDS011;2864;49.220;8.654;2022-12-18T16:22:05;44.83;;;22.40;;
5682;SDS011;2864;49.220;8.654;2022-12-18T16:24:39;42.60;;;21.17;;
5682;SDS011;2864;49.220;8.654;2022-12-18T16:27:07;47.23;;;22.27;;
5682;SDS011;2864;49.220;8.654;2022-12-18T16:29:33;48.33;;;21.73;;
5682;SDS011;2864;49.220;8.654;2022-12-18T16:31:59;45.40;;;22.07;;
5682;SDS011;2864;49.220;8.654;2022-12-18T16:34:26;53.07;;;23.63;;
5682;SDS011;2864;49.220;8.654;2022-12-18T16:36:56;49.53;;;21.63;;
5682;SDS011;2864;49.220;8.654;2022-12-18T16:39:23;50.83;;;24.73;;
5682;SDS011;2864;49.220;8.654;2022-12-18T16:41:50;43.43;;;22.50;;
5682;SDS011;2864;49.220;8.654;2022-12-18T16:44:17;48.90;;;23.70;;
5682;SDS011;2864;49.220;8.654;2022-12-18T16:46:42;46.43;;;22.00;;
5682;SDS011;2864;49.220;8.654;2022-12-18T16:49:10;50.30;;;23.50;;
5682;SDS011;2864;49.220;8.654;2022-12-18T16:51:36;49.87;;;23.57;;
5682;SDS011;2864;49.220;8.654;2022-12-18T16:54:02;43.10;;;22.20;;
5682;SDS011;2864;49.220;8.654;2022-12-18T16:56:29;56.90;;;24.70;;
5682;SDS011;2864;49.220;8.654;2022-12-18T16:58:56;47.50;;;23.27;;
5682;SDS011;2864;49.220;8.654;2022-12-18T17:01:24;42.80;;;21.17;;
5682;SDS011;2864;49.220;8.654;2022-12-18T17:03:53;42.50;;;21.47;;
5682;SDS011;2864;49.220;8.654;2022-12-18T17:06:24;47.53;;;20.33;;
5682;SDS011;2864;49.220;8.654;2022-12-18T17:09:06;43.13;;;20.57;;
5682;SDS011;2864;49.220;8.654;2022-12-18T17:11:33;39.00;;;18.73;;
5682;SDS011;2864;49.220;8.654;2022-12-18T17:14:07;41.43;;;21.20;;
5682;SDS011;2864;49.220;8.654;2022-12-18T17:16:35;37.27;;;19.97;;
5682;SDS011;2864;49.220;8.654;2022-12-18T17:19:01;44.33;;;21.77;;
5682;SDS011;2864;49.220;8.654;2022-12-18T17:21:27;43.90;;;23.07;;
5682;SDS011;2864;49.220;8.654;2022-12-18T17:23:53;42.00;;;20.63;;
5682;SDS011;2864;49.220;8.654;2022-12-18T17:26:18;39.57;;;18.53;;
5682;SDS011;2864;49.220;8.654;2022-12-18T17:28:44;44.17;;;20.57;;
5682;SDS011;2864;49.220;8.654;2022-12-18T17:31:21;41.30;;;20.57;;
5682;SDS011;2864;49.220;8.654;2022-12-18T17:33:48;44.40;;;21.23;;
5682;SDS011;2864;49.220;8.654;2022-12-18T17:36:15;37.93;;;19.43;;
5682;SDS011;2864;49.220;8.654;2022-12-18T17:38:41;43.07;;;21.40;;
5682;SDS011;2864;49.220;8.654;2022-12-18T17:41:09;45.27;;;21.83;;
5682;SDS011;2864;49.220;8.654;2022-12-18T17:43:36;43.17;;;20.07;;
5682;SDS011;2864;49.220;8.654;2022-12-18T17:46:10;39.33;;;20.20;;
5682;SDS011;2864;49.220;8.654;2022-12-18T17:48:37;40.67;;;20.37;;
5682;SDS011;2864;49.220;8.654;2022-12-18T17:51:03;40.73;;;19.50;;
5682;SDS011;2864;49.220;8.654;2022-12-18T17:56:54;39.47;;;19.47;;
5682;SDS011;2864;49.220;8.654;2022-12-18T17:59:19;34.80;;;17.13;;
5682;SDS011;2864;49.220;8.654;2022-12-18T18:01:45;37.73;;;20.03;;
5682;SDS011;2864;49.220;8.654;2022-12-18T18:04:11;37.80;;;19.07;;
5682;SDS011;2864;49.220;8.654;2022-12-18T18:06:37;61.73;;;26.27;;
5682;SDS011;2864;49.220;8.654;2022-12-18T18:09:03;46.53;;;22.37;;
5682;SDS011;2864;49.220;8.654;2022-12-18T18:11:31;37.30;;;20.43;;
5682;SDS011;2864;49.220;8.654;2022-12-18T18:14:16;38.13;;;19.33;;
5682;SDS011;2864;49.220;8.654;2022-12-18T18:16:45;43.73;;;19.40;;
5682;SDS011;2864;49.220;8.654;2022-12-18T18:19:14;41.70;;;20.60;;
5682;SDS011;2864;49.220;8.654;2022-12-18T18:21:44;38.93;;;20.73;;
5682;SDS011;2864;49.220;8.654;2022-12-18T18:24:12;39.43;;;19.53;;
5682;SDS011;2864;49.220;8.654;2022-12-18T18:26:39;42.20;;;21.30;;
5682;SDS011;2864;49.220;8.654;2022-12-18T18:29:06;43.10;;;20.70;;
5682;SDS011;2864;49.220;8.654;2022-12-18T18:31:33;38.13;;;20.37;;
5682;SDS011;2864;49.220;8.654;2022-12-18T18:34:01;41.30;;;20.83;;
5682;SDS011;2864;49.220;8.654;2022-12-18T18:36:27;35.07;;;19.23;;
5682;SDS011;2864;49.220;8.654;2022-12-18T18:38:53;40.47;;;19.53;;
5682;SDS011;2864;49.220;8.654;2022-12-18T18:41:19;39.53;;;19.53;;
5682;SDS011;2864;49.220;8.654;2022-12-18T18:43:48;39.17;;;19.10;;
5682;SDS011;2864;49.220;8.654;2022-12-18T18:46:18;37.67;;;19.03;;
5682;SDS011;2864;49.220;8.654;2022-12-18T18:48:44;38.83;;;20.10;;
5682;SDS011;2864;49.220;8.654;2022-12-18T18:51:12;37.13;;;18.97;;
5682;SDS011;2864;49.220;8.654;2022-12-18T18:53:40;39.33;;;20.33;;
5682;SDS011;2864;49.220;8.654;2022-12-18T18:56:07;37.43;;;20.17;;
5682;SDS011;2864;49.220;8.654;2022-12-18T18:58:34;38.60;;;19.80;;
5682;SDS011;2864;49.220;8.654;2022-12-18T19:01:02;41.83;;;21.33;;
5682;SDS011;2864;49.220;8.654;2022-12-18T19:03:30;40.33;;;20.57;;
5682;SDS011;2864;49.220;8.654;2022-12-18T19:05:57;40.53;;;20.43;;
5682;SDS011;2864;49.220;8.654;2022-12-18T19:08:24;39.57;;;19.80;;
5682;SDS011;2864;49.220;8.654;2022-12-18T19:10:52;40.67;;;21.13;;
5682;SDS011;2864;49.220;8.654;2022-12-18T19:13:19;38.80;;;20.17;;
5682;SDS011;2864;49.220;8.654;2022-12-18T19:15:47;38.43;;;20.50;;
5682;SDS011;2864;49.220;8.654;2022-12-18T19:18:13;33.70;;;17.73;;